sensor_id;sensor_type;location;lat;lon;timestamp;P1;durP1;ratioP1;P2;durP2;ratioP2
75914;SDS011;64593;51.050;13.780;2022-12-18T07:05:33;17.90;;;6.93;;
75914;SDS011;64593;51.050;13.780;2022-12-18T07:10:42;21.05;;;7.85;;
75914;SDS011;64593;51.050;13.780;2022-12-18T07:16:09;21.02;;;7.70;;
75914;SDS011;64593;51.050;13.780;2022-12-18T07:21:19;22.85;;;9.23;;
75914;SDS011;64593;51.050;13.780;2022-12-18T07:26:21;21.75;;;8.65;;
75914;SDS011;64593;51.050;13.780;2022-12-18T07:31:24;17.27;;;5.72;;
75914;SDS011;64593;51.050;13.780;2022-12-18T07:36:30;24.10;;;7.65;;
75914;SDS011;64593;51.050;13.780;2022-12-18T07:41:32;20.63;;;6.82;;
75914;SDS011;64593;51.050;13.780;2022-12-18T07:46:42;17.63;;;7.68;;
75914;SDS011;64593;51.050;13.780;2022-12-18T07:51:44;0.35;;;0.35;;
75914;SDS011;64593;51.050;13.780;2022-12-18T07:56:50;16.75;;;7.20;;
75914;SDS011;64593;51.050;13.780;2022-12-18T08:01:52;24.70;;;6.90;;
75914;SDS011;64593;51.050;13.780;2022-12-18T08:06:54;22.83;;;7.50;;
75914;SDS011;64593;51.050;13.780;2022-12-18T08:11:59;18.35;;;8.20;;
75914;SDS011;64593;51.050;13.780;2022-12-18T08:17:01;26.10;;;12.48;;
75914;SDS011;64593;51.050;13.780;2022-12-18T08:22:02;11.93;;;6.22;;
75914;SDS011;64593;51.050;13.780;2022-12-18T08:27:04;25.63;;;9.70;;
75914;SDS011;64593;51.050;13.780;2022-12-18T08:32:26;9.43;;;3.20;;
75914;SDS011;64593;51.050;13.780;2022-12-18T08:37:28;22.10;;;7.15;;
75914;SDS011;64593;51.050;13.780;2022-12-18T08:42:35;12.50;;;5.18;;
75914;SDS011;64593;51.050;13.780;2022-12-18T08:47:56;15.95;;;6.43;;
75914;SDS011;64593;51.050;13.780;2022-12-18T08:52:58;20.90;;;9.73;;
75914;SDS011;64593;51.050;13.780;2022-12-18T08:58:02;20.55;;;10.63;;
75914;SDS011;64593;51.050;13.780;2022-12-18T09:03:14;11.85;;;5.07;;
75914;SDS011;64593;51.050;13.780;2022-12-18T09:08:19;16.48;;;7.65;;
75914;SDS011;64593;51.050;13.780;2022-12-18T09:13:21;13.55;;;5.60;;
75914;SDS011;64593;51.050;13.780;2022-12-18T09:18:26;24.02;;;9.88;;
75914;SDS011;64593;51.050;13.780;2022-12-18T09:23:29;18.73;;;8.30;;
75914;SDS011;64593;51.050;13.780;2022-12-18T09:28:31;28.80;;;10.40;;
75914;SDS011;64593;51.050;13.780;2022-12-18T09:33:38;39.88;;;17.60;;
75914;SDS011;64593;51.050;13.780;2022-12-18T09:38:43;40.45;;;17.30;;
75914;SDS011;64593;51.050;13.780;2022-12-18T09:43:47;38.15;;;14.30;;
75914;SDS011;64593;51.050;13.780;2022-12-18T09:49:13;38.03;;;18.27;;
75914;SDS011;64593;51.050;13.780;2022-12-18T09:54:25;34.45;;;15.18;;
75914;SDS011;64593;51.050;13.780;2022-12-18T09:59:38;51.78;;;21.05;;
75914;SDS011;64593;51.050;13.780;2022-12-18T10:04:41;39.08;;;16.55;;
75914;SDS011;64593;51.050;13.780;2022-12-18T10:09:50;36.92;;;15.77;;
75914;SDS011;64593;51.050;13.780;2022-12-18T10:20:35;41.53;;;16.95;;
75914;SDS011;64593;51.050;13.780;2022-12-18T10:31:04;41.90;;;22.15;;
75914;SDS011;64593;51.050;13.780;2022-12-18T10:36:10;44.83;;;19.15;;
75914;SDS011;64593;51.050;13.780;2022-12-18T10:46:23;44.80;;;22.92;;
75914;SDS011;64593;51.050;13.780;2022-12-18T10:51:32;39.30;;;15.40;;
75914;SDS011;64593;51.050;13.780;2022-12-18T10:56:36;37.10;;;15.10;;
75914;SDS011;64593;51.050;13.780;2022-12-18T11:01:57;30.75;;;12.90;;
75914;SDS011;64593;51.050;13.780;2022-12-18T11:07:04;43.90;;;20.08;;
75914;SDS011;64593;51.050;13.780;2022-12-18T11:22:28;47.63;;;20.63;;
75914;SDS011;64593;51.050;13.780;2022-12-18T11:27:31;47.22;;;20.17;;
75914;SDS011;64593;51.050;13.780;2022-12-18T11:37:43;38.00;;;17.20;;
75914;SDS011;64593;51.050;13.780;2022-12-18T11:42:54;44.47;;;20.77;;
75914;SDS011;64593;51.050;13.780;2022-12-18T11:53:36;44.33;;;18.88;;
75914;SDS011;64593;51.050;13.780;2022-12-18T11:58:44;35.70;;;14.75;;
75914;SDS011;64593;51.050;13.780;2022-12-18T12:14:57;36.03;;;17.15;;
75914;SDS011;64593;51.050;13.780;2022-12-18T12:20:15;36.33;;;18.50;;
75914;SDS011;64593;51.050;13.780;2022-12-18T12:30:47;38.35;;;17.27;;
75914;SDS011;64593;51.050;13.780;2022-12-18T12:41:12;36.90;;;18.52;;
75914;SDS011;64593;51.050;13.780;2022-12-18T12:46:37;31.55;;;13.60;;
75914;SDS011;64593;51.050;13.780;2022-12-18T12:51:41;35.55;;;18.10;;
75914;SDS011;64593;51.050;13.780;2022-12-18T13:07:13;38.63;;;18.65;;
75914;SDS011;64593;51.050;13.780;2022-12-18T13:12:17;27.85;;;10.57;;
75914;SDS011;64593;51.050;13.780;2022-12-18T13:18:05;39.95;;;18.58;;
75914;SDS011;64593;51.050;13.780;2022-12-18T13:34:20;33.55;;;14.38;;
75914;SDS011;64593;51.050;13.780;2022-12-18T13:39:46;20.92;;;8.77;;
75914;SDS011;64593;51.050;13.780;2022-12-18T13:44:47;23.20;;;11.60;;
75914;SDS011;64593;51.050;13.780;2022-12-18T13:50:22;43.67;;;22.60;;
75914;SDS011;64593;51.050;13.780;2022-12-18T13:55:24;38.78;;;20.30;;
75914;SDS011;64593;51.050;13.780;2022-12-18T14:00:45;28.88;;;13.82;;
75914;SDS011;64593;51.050;13.780;2022-12-18T14:05:51;37.28;;;16.55;;
75914;SDS011;64593;51.050;13.780;2022-12-18T14:10:55;29.27;;;14.63;;
75914;SDS011;64593;51.050;13.780;2022-12-18T14:15:56;33.78;;;12.02;;
75914;SDS011;64593;51.050;13.780;2022-12-18T14:21:00;33.90;;;14.55;;
75914;SDS011;64593;51.050;13.780;2022-12-18T14:26:19;29.73;;;13.00;;
75914;SDS011;64593;51.050;13.780;2022-12-18T14:31:30;28.65;;;13.70;;
75914;SDS011;64593;51.050;13.780;2022-12-18T14:36:33;34.25;;;18.65;;
75914;SDS011;64593;51.050;13.780;2022-12-18T14:41:34;43.72;;;20.25;;
75914;SDS011;64593;51.050;13.780;2022-12-18T14:46:37;41.03;;;20.80;;
75914;SDS011;64593;51.050;13.780;2022-12-18T14:51:47;35.03;;;16.23;;
75914;SDS011;64593;51.050;13.780;2022-12-18T15:02:26;32.38;;;15.18;;
75914;SDS011;64593;51.050;13.780;2022-12-18T15:12:48;25.80;;;11.75;;
75914;SDS011;64593;51.050;13.780;2022-12-18T15:18:12;39.38;;;17.75;;
75914;SDS011;64593;51.050;13.780;2022-12-18T15:28:27;49.45;;;27.75;;
75914;SDS011;64593;51.050;13.780;2022-12-18T15:38:54;27.50;;;11.05;;
75914;SDS011;64593;51.050;13.780;2022-12-18T15:44:21;46.55;;;24.45;;
75914;SDS011;64593;51.050;13.780;2022-12-18T15:49:24;39.28;;;16.77;;
75914;SDS011;64593;51.050;13.780;2022-12-18T15:54:26;42.42;;;18.67;;
75914;SDS011;64593;51.050;13.780;2022-12-18T15:59:46;42.88;;;19.15;;
75914;SDS011;64593;51.050;13.780;2022-12-18T16:05:25;42.47;;;20.83;;
75914;SDS011;64593;51.050;13.780;2022-12-18T16:10:27;46.45;;;21.45;;
75914;SDS011;64593;51.050;13.780;2022-12-18T16:15:48;43.13;;;17.70;;
75914;SDS011;64593;51.050;13.780;2022-12-18T16:20:50;47.67;;;22.85;;
75914;SDS011;64593;51.050;13.780;2022-12-18T16:25:52;45.22;;;21.45;;
75914;SDS011;64593;51.050;13.780;2022-12-18T16:30:53;45.53;;;24.00;;
75914;SDS011;64593;51.050;13.780;2022-12-18T16:35:55;44.72;;;21.50;;
75914;SDS011;64593;51.050;13.780;2022-12-18T16:40:57;51.65;;;25.15;;
75914;SDS011;64593;51.050;13.780;2022-12-18T16:46:17;43.08;;;21.95;;
75914;SDS011;64593;51.050;13.780;2022-12-18T16:51:19;36.15;;;14.95;;
75914;SDS011;64593;51.050;13.780;2022-12-18T16:56:21;34.95;;;16.63;;
75914;SDS011;64593;51.050;13.780;2022-12-18T17:01:26;45.58;;;22.98;;
75914;SDS011;64593;51.050;13.780;2022-12-18T17:06:33;34.90;;;16.08;;
75914;SDS011;64593;51.050;13.780;2022-12-18T17:11:37;41.45;;;20.33;;
75914;SDS011;64593;51.050;13.780;2022-12-18T17:16:38;42.60;;;16.02;;
75914;SDS011;64593;51.050;13.780;2022-12-18T17:21:40;37.92;;;16.25;;
75914;SDS011;64593;51.050;13.780;2022-12-18T17:26:42;38.78;;;17.95;;
75914;SDS011;64593;51.050;13.780;2022-12-18T17:31:44;36.78;;;15.20;;
75914;SDS011;64593;51.050;13.780;2022-12-18T17:37:04;45.58;;;21.73;;
75914;SDS011;64593;51.050;13.780;2022-12-18T17:42:06;41.03;;;18.83;;
75914;SDS011;64593;51.050;13.780;2022-12-18T17:47:11;29.13;;;12.20;;
75914;SDS011;64593;51.050;13.780;2022-12-18T17:52:13;39.60;;;18.42;;
75914;SDS011;64593;51.050;13.780;2022-12-18T17:57:15;34.97;;;16.55;;
75914;SDS011;64593;51.050;13.780;2022-12-18T18:02:17;28.75;;;12.57;;
75914;SDS011;64593;51.050;13.780;2022-12-18T18:07:19;36.78;;;16.50;;
75914;SDS011;64593;51.050;13.780;2022-12-18T18:12:21;43.83;;;26.50;;
75914;SDS011;64593;51.050;13.780;2022-12-18T18:18:00;34.20;;;16.08;;
75914;SDS011;64593;51.050;13.780;2022-12-18T18:23:02;42.70;;;20.45;;
75914;SDS011;64593;51.050;13.780;2022-12-18T18:28:04;35.35;;;16.83;;
75914;SDS011;64593;51.050;13.780;2022-12-18T18:33:05;42.13;;;19.02;;
75914;SDS011;64593;51.050;13.780;2022-12-18T18:38:12;30.38;;;17.27;;
75914;SDS011;64593;51.050;13.780;2022-12-18T18:43:14;36.10;;;17.67;;
75914;SDS011;64593;51.050;13.780;2022-12-18T18:48:15;40.22;;;20.13;;
75914;SDS011;64593;51.050;13.780;2022-12-18T18:53:36;41.53;;;12.43;;
75914;SDS011;64593;51.050;13.780;2022-12-18T18:58:39;28.73;;;14.50;;
75914;SDS011;64593;51.050;13.780;2022-12-18T19:03:41;40.00;;;19.90;;
75914;SDS011;64593;51.050;13.780;2022-12-18T19:08:43;43.47;;;21.77;;
75914;SDS011;64593;51.050;13.780;2022-12-18T19:13:46;48.70;;;24.45;;
75914;SDS011;64593;51.050;13.780;2022-12-18T19:18:48;47.17;;;28.10;;
75914;SDS011;64593;51.050;13.780;2022-12-18T19:24:08;39.40;;;17.77;;
75914;SDS011;64593;51.050;13.780;2022-12-18T19:29:29;44.78;;;24.30;;
75914;SDS011;64593;51.050;13.780;2022-12-18T19:34:49;41.85;;;19.02;;
75914;SDS011;64593;51.050;13.780;2022-12-18T19:39:51;37.28;;;15.65;;
75914;SDS011;64593;51.050;13.780;2022-12-18T19:44:53;47.40;;;28.23;;
75914;SDS011;64593;51.050;13.780;2022-12-18T19:49:55;36.45;;;16.42;;
75914;SDS011;64593;51.050;13.780;2022-12-18T19:54:56;35.83;;;19.88;;
75914;SDS011;64593;51.050;13.780;2022-12-18T19:59:59;38.33;;;18.48;;
75914;SDS011;64593;51.050;13.780;2022-12-18T20:05:04;38.40;;;20.95;;
75914;SDS011;64593;51.050;13.780;2022-12-18T20:10:09;36.25;;;18.63;;
75914;SDS011;64593;51.050;13.780;2022-12-18T20:15:13;39.70;;;20.92;;
75914;SDS011;64593;51.050;13.780;2022-12-18T20:20:15;34.83;;;16.77;;
75914;SDS011;64593;51.050;13.780;2022-12-18T20:25:17;34.90;;;15.27;;
75914;SDS011;64593;51.050;13.780;2022-12-18T20:30:19;38.00;;;15.63;;
75914;SDS011;64593;51.050;13.780;2022-12-18T20:35:21;38.45;;;18.42;;
75914;SDS011;64593;51.050;13.780;2022-12-18T20:40:42;34.75;;;17.42;;
75914;SDS011;64593;51.050;13.780;2022-12-18T20:45:44;41.25;;;23.77;;
75914;SDS011;64593;51.050;13.780;2022-12-18T20:51:05;37.55;;;18.88;;
75914;SDS011;64593;51.050;13.780;2022-12-18T20:56:09;38.35;;;22.50;;
75914;SDS011;64593;51.050;13.780;2022-12-18T21:01:20;37.42;;;18.45;;
75914;SDS011;64593;51.050;13.780;2022-12-18T21:06:26;30.25;;;15.18;;
75914;SDS011;64593;51.050;13.780;2022-12-18T21:11:28;30.63;;;13.30;;
75914;SDS011;64593;51.050;13.780;2022-12-18T21:16:53;36.63;;;15.52;;
75914;SDS011;64593;51.050;13.780;2022-12-18T21:21:56;39.90;;;19.02;;
75914;SDS011;64593;51.050;13.780;2022-12-18T21:27:01;45.08;;;21.35;;
75914;SDS011;64593;51.050;13.780;2022-12-18T21:32:23;52.10;;;27.58;;
75914;SDS011;64593;51.050;13.780;2022-12-18T21:37:26;37.88;;;19.95;;
75914;SDS011;64593;51.050;13.780;2022-12-18T21:42:27;48.35;;;25.25;;
75914;SDS011;64593;51.050;13.780;2022-12-18T21:53:28;40.80;;;17.60;;
75914;SDS011;64593;51.050;13.780;2022-12-18T21:58:29;30.63;;;11.18;;
75914;SDS011;64593;51.050;13.780;2022-12-18T22:03:31;49.95;;;25.08;;
75914;SDS011;64593;51.050;13.780;2022-12-18T22:08:35;50.47;;;25.42;;
75914;SDS011;64593;51.050;13.780;2022-12-18T22:13:55;54.40;;;23.30;;
75914;SDS011;64593;51.050;13.780;2022-12-18T22:18:57;56.80;;;28.65;;
75914;SDS011;64593;51.050;13.780;2022-12-18T22:24:24;51.40;;;26.23;;
75914;SDS011;64593;51.050;13.780;2022-12-18T22:29:28;50.40;;;24.27;;
75914;SDS011;64593;51.050;13.780;2022-12-18T22:34:51;51.35;;;30.27;;
75914;SDS011;64593;51.050;13.780;2022-12-18T22:39:56;59.22;;;34.83;;
75914;SDS011;64593;51.050;13.780;2022-12-18T22:44:58;39.55;;;18.58;;
75914;SDS011;64593;51.050;13.780;2022-12-18T22:50:00;57.88;;;30.10;;
75914;SDS011;64593;51.050;13.780;2022-12-18T22:55:02;48.65;;;28.83;;
